createdAt,value
2018-03-23T00:01:48.024Z,4.64
2018-03-23T00:04:14.103Z,4.60
2018-03-23T00:09:33.216Z,4.60
2018-03-23T00:11:59.275Z,4.60
2018-03-23T00:14:25.364Z,4.60
2018-03-23T00:16:51.478Z,4.61
2018-03-23T00:19:17.838Z,4.57
2018-03-23T00:21:43.929Z,4.53
2018-03-23T00:24:09.966Z,4.51
2018-03-23T00:26:36.020Z,4.53
2018-03-23T00:29:02.061Z,4.52
2018-03-23T00:31:28.126Z,4.49
2018-03-23T00:33:54.164Z,4.48
2018-03-23T00:36:20.257Z,4.42
2018-03-23T00:38:46.568Z,4.42
2018-03-23T00:41:12.614Z,4.40
2018-03-23T00:43:38.674Z,4.44
2018-03-23T00:46:04.731Z,4.44
2018-03-23T00:48:30.784Z,4.45
2018-03-23T00:50:56.884Z,4.48
2018-03-23T00:53:22.948Z,4.45
2018-03-23T00:55:48.991Z,4.45
2018-03-23T00:58:15.032Z,4.45
2018-03-23T01:00:41.319Z,4.43
2018-03-23T01:03:07.345Z,4.43
2018-03-23T01:05:33.428Z,4.45
2018-03-23T01:07:59.478Z,4.45
2018-03-23T01:10:25.546Z,4.41
2018-03-23T01:12:51.643Z,4.45
2018-03-23T01:15:17.882Z,4.41
2018-03-23T01:17:43.967Z,4.42
2018-03-23T01:20:10.156Z,4.41
2018-03-23T01:22:36.224Z,4.42
2018-03-23T01:25:02.237Z,4.41
2018-03-23T01:27:28.391Z,4.40
2018-03-23T01:29:54.440Z,4.36
2018-03-23T01:32:20.446Z,4.36
2018-03-23T01:34:46.488Z,4.32
2018-03-23T01:37:12.515Z,4.35
2018-03-23T01:39:38.571Z,4.33
2018-03-23T01:42:04.598Z,4.32
2018-03-23T01:44:30.643Z,4.27
2018-03-23T01:46:56.675Z,4.24
2018-03-23T01:49:22.707Z,4.20
2018-03-23T01:51:48.790Z,4.16
2018-03-23T01:54:14.796Z,4.17
2018-03-23T01:56:41.012Z,4.17
2018-03-23T01:59:07.030Z,4.17
2018-03-23T02:01:33.087Z,4.15
2018-03-23T02:03:59.139Z,4.15
2018-03-23T02:06:25.402Z,4.11
2018-03-23T02:08:51.520Z,4.08
2018-03-23T02:11:17.574Z,4.08
2018-03-23T02:13:43.622Z,4.06
2018-03-23T02:16:09.720Z,4.04
2018-03-23T02:18:35.807Z,4.03
2018-03-23T02:21:01.860Z,3.98
2018-03-23T02:23:27.984Z,4.00
2018-03-23T02:25:54.027Z,3.98
2018-03-23T02:28:20.060Z,3.99
2018-03-23T02:30:46.095Z,3.97
2018-03-23T02:33:12.168Z,3.97
2018-03-23T02:35:38.341Z,3.97
2018-03-23T02:38:04.428Z,3.99
2018-03-23T02:40:30.541Z,3.96
2018-03-23T02:42:56.592Z,3.94
2018-03-23T02:45:22.683Z,3.97
2018-03-23T02:47:48.723Z,3.95
2018-03-23T02:50:14.760Z,3.95
2018-03-23T02:52:40.849Z,3.95
2018-03-23T02:55:06.873Z,3.94
2018-03-23T02:57:33.123Z,3.93
2018-03-23T02:59:59.135Z,3.94
2018-03-23T03:02:25.236Z,3.91
2018-03-23T03:04:51.289Z,3.91
2018-03-23T03:07:17.311Z,3.89
2018-03-23T03:09:43.323Z,3.87
2018-03-23T03:12:09.388Z,3.88
2018-03-23T03:14:35.505Z,3.88
2018-03-23T03:17:01.706Z,3.89
2018-03-23T03:19:27.754Z,3.86
2018-03-23T03:21:53.803Z,3.85
2018-03-23T03:24:19.871Z,3.86
2018-03-23T03:26:45.900Z,3.85
2018-03-23T03:29:11.935Z,3.83
2018-03-23T03:31:37.991Z,3.84
2018-03-23T03:34:04.006Z,3.82
2018-03-23T03:36:30.071Z,3.83
2018-03-23T03:38:56.108Z,3.84
2018-03-23T03:44:15.240Z,3.82
2018-03-23T03:46:41.468Z,3.80
2018-03-23T03:49:07.530Z,3.78
2018-03-23T03:51:33.788Z,3.78
2018-03-23T03:53:59.904Z,3.77
2018-03-23T03:56:26.036Z,3.79
2018-03-23T03:58:52.190Z,3.76
2018-03-23T04:01:18.245Z,3.76
2018-03-23T04:03:44.323Z,3.77
2018-03-23T04:06:10.533Z,3.76
2018-03-23T04:08:36.552Z,3.76
2018-03-23T04:11:02.649Z,3.74
2018-03-23T04:13:28.701Z,3.76
2018-03-23T04:15:54.812Z,3.79
2018-03-23T04:18:20.880Z,3.80
2018-03-23T04:20:47.112Z,3.81
2018-03-23T04:23:13.218Z,3.81
2018-03-23T04:25:39.294Z,3.77
2018-03-23T04:28:05.361Z,3.78
2018-03-23T04:30:31.410Z,3.80
2018-03-23T04:32:57.508Z,3.80
2018-03-23T04:35:23.575Z,3.78
2018-03-23T04:37:49.622Z,3.75
2018-03-23T04:40:15.659Z,3.76
2018-03-23T04:42:41.677Z,3.81
2018-03-23T04:45:07.900Z,3.84
2018-03-23T04:47:33.914Z,3.79
2018-03-23T04:50:00.017Z,3.79
2018-03-23T04:52:26.062Z,3.84
2018-03-23T04:54:52.116Z,3.78
2018-03-23T04:57:18.283Z,3.80
2018-03-23T04:59:44.322Z,3.77
2018-03-23T05:02:10.388Z,3.79
2018-03-23T05:04:36.418Z,3.76
2018-03-23T05:07:02.705Z,3.78
2018-03-23T05:09:28.737Z,3.77
2018-03-23T05:11:54.774Z,3.84
2018-03-23T05:14:20.846Z,3.80
2018-03-23T05:16:46.951Z,3.80
2018-03-23T05:19:13.175Z,3.84
2018-03-23T05:21:39.235Z,3.80
2018-03-23T05:24:05.278Z,3.82
2018-03-23T05:26:31.333Z,3.87
2018-03-23T05:28:57.414Z,3.89
2018-03-23T05:31:23.475Z,3.90
2018-03-23T05:33:49.603Z,3.91
2018-03-23T05:36:15.655Z,3.93
2018-03-23T05:38:41.767Z,3.94
2018-03-23T05:41:07.842Z,3.99
2018-03-23T05:43:33.909Z,3.99
2018-03-23T05:45:59.965Z,3.96
2018-03-23T05:48:26.012Z,4.01
2018-03-23T05:50:52.256Z,3.99
2018-03-23T05:53:18.310Z,4.01
2018-03-23T05:55:44.348Z,4.03
2018-03-23T05:58:10.654Z,4.00
2018-03-23T06:00:36.814Z,3.98
2018-03-23T06:03:02.891Z,3.99
2018-03-23T06:05:29.217Z,3.99
2018-03-23T06:07:55.426Z,3.99
2018-03-23T06:10:21.465Z,3.95
2018-03-23T06:12:47.540Z,3.99
2018-03-23T06:15:13.606Z,3.99
2018-03-23T06:17:39.766Z,4.04
2018-03-23T06:20:05.834Z,4.07
2018-03-23T06:22:31.999Z,4.09
2018-03-23T06:24:58.088Z,4.08
2018-03-23T06:27:24.119Z,4.10
2018-03-23T06:29:50.192Z,4.09
2018-03-23T06:32:16.393Z,4.13
2018-03-23T06:34:42.450Z,4.14
2018-03-23T06:37:08.511Z,4.17
2018-03-23T06:39:34.579Z,4.16
2018-03-23T06:42:00.953Z,4.18
2018-03-23T06:44:27.064Z,4.23
2018-03-23T06:46:53.248Z,4.24
2018-03-23T06:49:19.286Z,4.23
2018-03-23T06:51:45.342Z,4.24
2018-03-23T06:54:11.626Z,4.28
2018-03-23T06:56:37.837Z,4.25
2018-03-23T06:59:03.920Z,4.31
2018-03-23T07:01:30.002Z,4.33
2018-03-23T07:03:56.143Z,4.37
2018-03-23T07:06:22.781Z,4.37
2018-03-23T07:08:49.045Z,4.42
2018-03-23T07:11:15.129Z,4.47
2018-03-23T07:13:41.184Z,4.50
2018-03-23T07:16:07.265Z,4.50
2018-03-23T07:18:33.460Z,4.50
2018-03-23T07:20:59.546Z,4.54
2018-03-23T07:23:25.582Z,4.46
2018-03-23T07:25:51.662Z,4.51
2018-03-23T07:28:17.683Z,4.51
2018-03-23T07:30:43.909Z,4.54
2018-03-23T07:33:10.027Z,4.53
2018-03-23T07:35:36.055Z,4.49
2018-03-23T07:38:02.106Z,4.55
2018-03-23T07:40:28.212Z,4.61
2018-03-23T07:42:54.224Z,4.58
2018-03-23T07:45:20.282Z,4.60
2018-03-23T07:47:46.399Z,4.64
2018-03-23T07:50:12.472Z,4.64
2018-03-23T07:52:38.687Z,4.70
2018-03-23T07:55:04.738Z,4.70
2018-03-23T07:57:30.786Z,4.76
2018-03-23T07:59:56.824Z,4.87
2018-03-23T08:02:22.881Z,4.90
2018-03-23T08:04:48.920Z,4.95
2018-03-23T08:07:14.992Z,4.94
2018-03-23T08:09:41.050Z,4.97
2018-03-23T08:12:07.122Z,4.97
2018-03-23T08:14:33.157Z,5.02
2018-03-23T08:16:59.220Z,5.15
2018-03-23T08:19:25.285Z,5.24
2018-03-23T08:21:51.359Z,5.33
2018-03-23T08:24:17.456Z,5.37
2018-03-23T08:26:43.480Z,5.40
2018-03-23T08:29:09.500Z,5.37
2018-03-23T08:31:35.556Z,5.38
2018-03-23T08:34:01.612Z,5.33
2018-03-23T08:36:27.693Z,5.26
2018-03-23T08:38:53.744Z,5.30
2018-03-23T08:41:19.825Z,5.28
2018-03-23T08:43:45.906Z,5.23
2018-03-23T08:46:12.476Z,5.34
2018-03-23T08:48:38.599Z,5.41
2018-03-23T08:51:04.664Z,5.40
2018-03-23T08:53:30.939Z,5.47
2018-03-23T08:55:56.981Z,5.44
2018-03-23T08:58:23.041Z,5.48
2018-03-23T09:00:49.152Z,5.54
2018-03-23T09:03:15.191Z,5.61
2018-03-23T09:05:41.236Z,5.61
2018-03-23T09:08:07.253Z,5.70
2018-03-23T09:10:33.336Z,5.78
2018-03-23T09:12:59.379Z,5.88
2018-03-23T09:15:25.485Z,6.02
2018-03-23T09:17:51.510Z,6.13
2018-03-23T09:20:17.584Z,5.98
2018-03-23T09:22:43.604Z,6.08
2018-03-23T09:25:09.602Z,6.24
2018-03-23T09:27:35.685Z,6.29
2018-03-23T09:30:01.689Z,6.32
2018-03-23T09:32:27.760Z,6.25
2018-03-23T09:34:53.764Z,6.34
2018-03-23T09:37:19.915Z,6.35
2018-03-23T09:39:45.978Z,6.43
2018-03-23T09:42:12.020Z,6.33
2018-03-23T09:44:38.034Z,6.31
2018-03-23T09:47:04.071Z,6.29
2018-03-23T09:49:30.203Z,6.30
2018-03-23T09:51:56.253Z,6.36
2018-03-23T09:54:22.328Z,6.46
2018-03-23T09:56:48.376Z,6.69
2018-03-23T09:59:14.560Z,6.91
2018-03-23T10:01:40.626Z,7.01
2018-03-23T10:04:06.710Z,7.20
2018-03-23T10:06:32.716Z,7.17
2018-03-23T10:08:58.827Z,7.08
2018-03-23T10:11:24.900Z,7.01
2018-03-23T10:13:50.984Z,7.10
2018-03-23T10:16:17.033Z,7.12
2018-03-23T10:18:43.050Z,7.19
2018-03-23T10:21:09.181Z,7.22
2018-03-23T10:23:35.248Z,7.26
2018-03-23T10:26:01.328Z,7.13
2018-03-23T10:28:27.358Z,7.12
2018-03-23T10:30:53.502Z,7.16
2018-03-23T10:33:19.534Z,7.26
2018-03-23T10:35:45.782Z,7.32
2018-03-23T10:38:11.825Z,7.49
2018-03-23T10:40:37.875Z,7.65
2018-03-23T10:43:03.968Z,7.73
2018-03-23T10:45:30.008Z,7.74
2018-03-23T10:47:56.060Z,7.57
2018-03-23T10:50:22.110Z,7.58
2018-03-23T10:52:48.184Z,7.69
2018-03-23T10:55:14.311Z,7.65
2018-03-23T10:57:40.355Z,7.56
2018-03-23T11:00:06.430Z,7.58
2018-03-23T11:02:42.443Z,7.69
2018-03-23T11:05:08.698Z,7.89
2018-03-23T11:07:34.788Z,8.14
2018-03-23T11:10:00.844Z,8.26
2018-03-23T11:12:26.912Z,8.34
2018-03-23T11:14:53.104Z,8.37
2018-03-23T11:17:19.313Z,8.28
2018-03-23T11:19:45.392Z,8.55
2018-03-23T11:22:11.417Z,9.25
2018-03-23T11:24:37.459Z,9.58
2018-03-23T11:27:03.503Z,10.04
2018-03-23T11:29:29.621Z,10.39
2018-03-23T11:31:55.693Z,10.80
2018-03-23T11:34:21.840Z,10.36
2018-03-23T11:36:47.881Z,10.44
2018-03-23T11:39:13.941Z,9.70
2018-03-23T11:41:40.130Z,9.57
2018-03-23T11:44:06.232Z,9.32
2018-03-23T11:46:32.399Z,9.19
2018-03-23T11:48:58.451Z,9.01
2018-03-23T11:51:24.600Z,8.93
2018-03-23T11:53:50.658Z,8.82
2018-03-23T11:56:16.715Z,8.86
2018-03-23T11:58:42.751Z,8.89
2018-03-23T12:01:09.012Z,8.97
2018-03-23T12:06:28.237Z,9.31
2018-03-23T12:08:54.368Z,9.36
2018-03-23T12:11:20.466Z,9.45
2018-03-23T12:13:46.502Z,9.45
2018-03-23T12:16:12.564Z,9.43
2018-03-23T12:18:38.919Z,9.53
2018-03-23T12:21:04.947Z,9.59
2018-03-23T12:23:30.981Z,9.84
2018-03-23T12:25:57.020Z,9.98
2018-03-23T12:28:23.088Z,9.85
2018-03-23T12:30:49.132Z,9.74
2018-03-23T12:33:15.223Z,9.69
2018-03-23T12:35:41.306Z,9.77
2018-03-23T12:38:07.367Z,9.81
2018-03-23T12:40:33.471Z,9.95
2018-03-23T12:42:59.576Z,10.08
2018-03-23T12:45:25.724Z,9.96
2018-03-23T12:47:51.785Z,9.97
2018-03-23T12:50:17.903Z,9.95
2018-03-23T12:52:44.070Z,10.34
2018-03-23T12:55:10.107Z,10.80
2018-03-23T12:57:36.157Z,11.58
2018-03-23T13:00:02.224Z,12.09
2018-03-23T13:02:28.417Z,12.30
2018-03-23T13:04:54.544Z,11.94
2018-03-23T13:07:20.586Z,11.46
2018-03-23T13:09:46.657Z,11.99
2018-03-23T13:12:12.732Z,11.47
2018-03-23T13:14:38.938Z,11.38
2018-03-23T13:17:04.995Z,12.24
2018-03-23T13:19:31.013Z,12.49
2018-03-23T13:21:57.192Z,12.59
2018-03-23T13:24:23.235Z,12.63
2018-03-23T13:26:49.391Z,12.02
2018-03-23T13:29:15.450Z,11.88
2018-03-23T13:31:41.588Z,11.38
2018-03-23T13:34:07.606Z,11.23
2018-03-23T13:36:33.673Z,10.89
2018-03-23T13:38:59.817Z,10.89
2018-03-23T13:41:25.941Z,10.90
2018-03-23T13:43:52.038Z,10.68
2018-03-23T13:46:18.092Z,10.78
2018-03-23T13:48:44.207Z,10.81
2018-03-23T13:51:10.280Z,10.69
2018-03-23T13:53:36.325Z,10.70
2018-03-23T13:56:02.382Z,10.68
2018-03-23T13:58:34.428Z,10.50
2018-03-23T14:01:01.340Z,10.46
2018-03-23T14:03:27.397Z,10.63
2018-03-23T14:05:53.492Z,10.82
2018-03-23T14:08:19.600Z,10.76
2018-03-23T14:10:45.796Z,10.54
2018-03-23T14:13:11.887Z,10.50
2018-03-23T14:15:38.087Z,10.54
2018-03-23T14:18:04.127Z,10.73
2018-03-23T14:20:30.164Z,10.93
2018-03-23T14:22:56.236Z,10.99
2018-03-23T14:25:22.279Z,11.02
2018-03-23T14:27:48.331Z,11.03
2018-03-23T14:30:14.405Z,10.99
2018-03-23T14:32:40.432Z,10.89
2018-03-23T14:35:06.488Z,10.68
2018-03-23T14:37:32.556Z,10.42
2018-03-23T14:39:58.679Z,10.35
2018-03-23T14:42:24.711Z,10.26
2018-03-23T14:44:50.863Z,10.18
2018-03-23T14:47:16.899Z,10.13
2018-03-23T14:49:42.999Z,10.01
2018-03-23T14:52:09.183Z,10.05
2018-03-23T14:54:35.207Z,10.11
2018-03-23T14:57:01.361Z,10.21
2018-03-23T14:59:27.379Z,10.33
2018-03-23T15:01:53.547Z,10.35
2018-03-23T15:04:19.560Z,10.37
2018-03-23T15:06:45.648Z,10.51
2018-03-23T15:09:11.711Z,10.62
2018-03-23T15:11:37.811Z,10.68
2018-03-23T15:14:15.154Z,10.77
2018-03-23T15:16:41.188Z,10.78
2018-03-23T15:19:07.266Z,10.60
2018-03-23T15:21:33.274Z,10.62
2018-03-23T15:23:59.301Z,10.59
2018-03-23T15:26:25.440Z,10.50
2018-03-23T15:28:51.539Z,10.46
2018-03-23T15:31:17.609Z,10.35
2018-03-23T15:33:43.685Z,10.35
2018-03-23T15:36:09.775Z,10.32
2018-03-23T15:38:35.954Z,10.19
2018-03-23T15:41:02.114Z,10.17
2018-03-23T15:43:28.208Z,10.12
2018-03-23T15:45:54.249Z,10.11
2018-03-23T15:48:20.321Z,10.17
2018-03-23T15:50:46.436Z,10.10
2018-03-23T15:53:12.472Z,10.03
2018-03-23T15:55:38.558Z,9.96
2018-03-23T15:58:04.663Z,9.99
2018-03-23T16:00:30.680Z,10.04
2018-03-23T16:02:56.827Z,10.10
2018-03-23T16:05:22.898Z,10.14
2018-03-23T16:07:48.977Z,10.08
2018-03-23T16:10:15.330Z,9.98
2018-03-23T16:12:41.406Z,9.92
2018-03-23T16:15:07.729Z,9.86
2018-03-23T16:17:33.802Z,9.80
2018-03-23T16:19:59.815Z,9.83
2018-03-23T16:22:25.930Z,9.82
2018-03-23T16:24:51.989Z,9.78
2018-03-23T16:27:18.335Z,9.74
2018-03-23T16:29:44.408Z,9.67
2018-03-23T16:32:10.452Z,9.61
2018-03-23T16:34:36.542Z,9.56
2018-03-23T16:37:02.563Z,9.49
2018-03-23T16:39:28.604Z,9.42
2018-03-23T16:41:54.645Z,9.39
2018-03-23T16:44:20.721Z,9.36
2018-03-23T16:46:46.757Z,9.35
2018-03-23T16:49:12.846Z,9.28
2018-03-23T16:51:38.891Z,9.29
2018-03-23T16:54:05.310Z,9.25
2018-03-23T16:56:31.696Z,9.23
2018-03-23T16:58:57.913Z,9.20
2018-03-23T17:01:24.157Z,9.16
2018-03-23T17:03:50.217Z,9.09
2018-03-23T17:06:16.534Z,9.13
2018-03-23T17:08:42.642Z,9.15
2018-03-23T17:11:08.899Z,9.10
2018-03-23T17:13:34.994Z,9.08
2018-03-23T17:16:01.966Z,9.06
2018-03-23T17:18:28.059Z,9.07
2018-03-23T17:20:54.227Z,9.06
2018-03-23T17:23:20.321Z,9.03
2018-03-23T17:25:46.390Z,8.99
2018-03-23T17:28:13.174Z,8.92
2018-03-23T17:30:39.301Z,8.91
2018-03-23T17:33:05.341Z,8.87
2018-03-23T17:35:31.478Z,8.84
2018-03-23T17:37:57.502Z,8.84
2018-03-23T17:40:23.619Z,8.83
2018-03-23T17:42:49.703Z,8.78
2018-03-23T17:45:16.154Z,8.71
2018-03-23T17:47:42.224Z,8.65
2018-03-23T17:50:08.315Z,8.64
2018-03-23T17:52:34.350Z,8.58
2018-03-23T17:55:00.367Z,8.54
2018-03-23T17:57:26.438Z,8.52
2018-03-23T17:59:52.463Z,8.50
2018-03-23T18:02:18.829Z,8.45
2018-03-23T18:04:44.900Z,8.47
2018-03-23T18:07:11.001Z,8.43
2018-03-23T18:09:37.146Z,8.42
2018-03-23T18:12:03.205Z,8.41
2018-03-23T18:14:29.340Z,8.42
2018-03-23T18:16:55.403Z,8.37
2018-03-23T18:19:21.488Z,8.36
2018-03-23T18:21:47.659Z,8.37
2018-03-23T18:24:13.774Z,8.33
2018-03-23T18:26:39.945Z,8.31
2018-03-23T18:29:06.944Z,8.31
2018-03-23T18:31:33.039Z,8.27
2018-03-23T18:33:59.292Z,8.23
2018-03-23T18:36:25.540Z,8.16
2018-03-23T18:38:51.671Z,8.15
2018-03-23T18:41:17.779Z,8.13
2018-03-23T18:43:43.826Z,8.12
2018-03-23T18:46:09.933Z,8.08
2018-03-23T18:48:36.033Z,8.10
2018-03-23T18:51:02.085Z,8.05
2018-03-23T18:53:28.286Z,8.03
2018-03-23T18:55:54.342Z,8.00
2018-03-23T18:58:20.421Z,7.99
2018-03-23T19:00:46.540Z,7.96
2018-03-23T19:03:12.755Z,7.90
2018-03-23T19:05:38.850Z,7.91
2018-03-23T19:08:05.220Z,7.91
2018-03-23T19:10:31.452Z,7.88
2018-03-23T19:12:57.566Z,7.86
2018-03-23T19:15:23.702Z,7.82
2018-03-23T19:17:50.406Z,7.80
2018-03-23T19:20:16.601Z,7.76
2018-03-23T19:22:42.716Z,7.77
2018-03-23T19:25:08.812Z,7.74
2018-03-23T19:27:35.050Z,7.74
2018-03-23T19:30:01.552Z,7.73
2018-03-23T19:32:27.617Z,7.68
2018-03-23T19:34:53.741Z,7.66
2018-03-23T19:37:19.930Z,7.63
2018-03-23T19:39:46.167Z,7.60
2018-03-23T19:42:12.405Z,7.61
2018-03-23T19:44:38.511Z,7.56
2018-03-23T19:47:04.665Z,7.53
2018-03-23T19:49:30.779Z,7.52
2018-03-23T19:51:57.089Z,7.50
2018-03-23T19:54:23.177Z,7.53
2018-03-23T19:56:49.336Z,7.47
2018-03-23T19:59:15.401Z,7.47
2018-03-23T20:01:41.502Z,7.46
2018-03-23T20:04:07.656Z,7.44
2018-03-23T20:06:33.872Z,7.43
2018-03-23T20:08:59.962Z,7.40
2018-03-23T20:11:26.130Z,7.39
2018-03-23T20:13:58.281Z,7.37
2018-03-23T20:16:24.743Z,7.33
2018-03-23T20:18:51.794Z,7.32
2018-03-23T20:21:18.562Z,7.34
2018-03-23T20:23:44.865Z,7.33
2018-03-23T20:26:11.052Z,7.30
2018-03-23T20:28:40.162Z,7.30
2018-03-23T20:31:06.222Z,7.27
2018-03-23T20:33:32.397Z,7.26
2018-03-23T20:35:58.484Z,7.21
2018-03-23T20:38:24.743Z,7.19
2018-03-23T20:40:50.822Z,7.14
2018-03-23T20:43:17.070Z,7.16
2018-03-23T20:45:43.192Z,7.07
2018-03-23T20:48:09.344Z,7.08
2018-03-23T20:50:35.471Z,7.04
2018-03-23T20:53:01.636Z,7.01
2018-03-23T20:55:27.737Z,6.95
2018-03-23T20:57:53.800Z,6.97
2018-03-23T21:00:19.966Z,6.93
2018-03-23T21:02:46.122Z,6.92
2018-03-23T21:05:12.203Z,6.89
2018-03-23T21:07:38.435Z,6.90
2018-03-23T21:10:04.653Z,6.86
2018-03-23T21:12:30.794Z,6.82
2018-03-23T21:14:57.041Z,6.82
2018-03-23T21:17:23.179Z,6.80
2018-03-23T21:19:49.267Z,6.79
2018-03-23T21:22:15.496Z,6.76
2018-03-23T21:24:41.603Z,6.73
2018-03-23T21:27:07.671Z,6.74
2018-03-23T21:29:33.836Z,6.71
2018-03-23T21:31:59.934Z,6.73
2018-03-23T21:34:26.071Z,6.71
2018-03-23T21:36:52.207Z,6.71
2018-03-23T21:39:18.358Z,6.68
2018-03-23T21:41:44.483Z,6.68
2018-03-23T21:44:10.544Z,6.65
2018-03-23T21:46:36.647Z,6.68
2018-03-23T21:49:02.791Z,6.65
2018-03-23T21:51:28.994Z,6.60
2018-03-23T21:53:55.196Z,6.59
2018-03-23T21:56:21.381Z,6.56
2018-03-23T21:58:47.592Z,6.55
2018-03-23T22:01:13.836Z,6.54
2018-03-23T22:03:39.980Z,6.51
2018-03-23T22:06:06.198Z,6.46
2018-03-23T22:08:32.468Z,6.43
2018-03-23T22:10:58.684Z,6.40
2018-03-23T22:13:24.793Z,6.44
2018-03-23T22:15:51.053Z,6.44
2018-03-23T22:18:17.221Z,6.45
2018-03-23T22:20:43.299Z,6.39
2018-03-23T22:23:09.502Z,6.39
2018-03-23T22:25:35.705Z,6.40
2018-03-23T22:28:01.765Z,6.37
2018-03-23T22:30:27.822Z,6.35
2018-03-23T22:32:53.922Z,6.31
2018-03-23T22:35:20.044Z,6.27
2018-03-23T22:37:46.113Z,6.27
2018-03-23T22:40:12.261Z,6.26
2018-03-23T22:42:38.384Z,6.27
2018-03-23T22:45:04.535Z,6.27
2018-03-23T22:47:30.709Z,6.27
2018-03-23T22:49:56.772Z,6.23
2018-03-23T22:52:22.854Z,6.23
2018-03-23T22:54:48.909Z,6.22
2018-03-23T22:57:14.977Z,6.22
2018-03-23T22:59:41.121Z,6.23
2018-03-23T23:02:07.212Z,6.23
2018-03-23T23:04:33.262Z,6.21
2018-03-23T23:06:59.289Z,6.20
2018-03-23T23:12:18.576Z,6.19
2018-03-23T23:14:44.660Z,6.16
2018-03-23T23:17:10.759Z,6.18
2018-03-23T23:19:36.847Z,6.17
2018-03-23T23:22:02.914Z,6.15
2018-03-23T23:24:28.980Z,6.16
2018-03-23T23:26:55.065Z,6.15
2018-03-23T23:29:21.148Z,6.16
2018-03-23T23:31:47.212Z,6.11
2018-03-23T23:34:13.284Z,6.09
2018-03-23T23:36:39.440Z,6.04
2018-03-23T23:39:05.463Z,6.03
2018-03-23T23:41:31.499Z,6.04
2018-03-23T23:43:57.546Z,6.07
2018-03-23T23:46:23.709Z,6.05
2018-03-23T23:48:49.762Z,6.07
2018-03-23T23:51:15.955Z,6.10
2018-03-23T23:53:42.030Z,6.07
2018-03-23T23:56:08.074Z,6.05
2018-03-23T23:58:34.395Z,6.07
